createdAt,value
2022-09-22T00:03:23.291Z,11.01
2022-09-22T00:08:27.128Z,10.95
2022-09-22T00:13:33.699Z,10.92
2022-09-22T00:18:37.860Z,10.86
2022-09-22T00:23:42.886Z,10.79
2022-09-22T00:28:48.901Z,10.76
2022-09-22T00:33:53.791Z,10.75
2022-09-22T00:38:58.825Z,10.68
2022-09-22T00:44:34.152Z,10.63
2022-09-22T00:49:46.365Z,10.58
2022-09-22T00:54:52.487Z,10.54
2022-09-22T00:59:57.715Z,10.51
2022-09-22T01:05:01.515Z,10.44
2022-09-22T01:10:06.040Z,10.42
2022-09-22T01:15:22.563Z,10.36
2022-09-22T01:20:46.436Z,10.32
2022-09-22T01:26:07.923Z,10.27
2022-09-22T01:31:20.548Z,10.22
2022-09-22T01:36:27.351Z,10.17
2022-09-22T01:41:46.644Z,10.11
2022-09-22T01:46:55.261Z,10.06
2022-09-22T01:52:02.296Z,10.04
2022-09-22T01:57:13.270Z,10.00
2022-09-22T02:02:25.353Z,9.98
2022-09-22T02:07:33.845Z,9.89
2022-09-22T02:12:37.612Z,9.89
2022-09-22T02:17:42.529Z,9.77
2022-09-22T02:22:46.267Z,9.78
2022-09-22T02:27:53.552Z,9.74
2022-09-22T02:33:01.027Z,9.73
2022-09-22T02:38:10.586Z,9.69
2022-09-22T02:43:22.707Z,9.63
2022-09-22T02:48:31.955Z,9.62
2022-09-22T02:53:36.632Z,9.57
2022-09-22T02:58:40.537Z,9.56
2022-09-22T03:03:45.884Z,9.51
2022-09-22T03:08:49.541Z,9.44
2022-09-22T03:13:53.396Z,9.40
2022-09-22T03:18:58.433Z,9.37
2022-09-22T03:24:02.207Z,9.37
2022-09-22T03:29:06.212Z,9.32
2022-09-22T03:34:11.266Z,9.28
2022-09-22T03:39:14.911Z,9.24
2022-09-22T03:44:18.929Z,9.22
2022-09-22T03:49:24.845Z,9.18
2022-09-22T03:54:28.725Z,9.13
2022-09-22T03:59:32.756Z,9.10
2022-09-22T04:04:37.765Z,9.09
2022-09-22T04:09:42.019Z,9.02
2022-09-22T04:14:45.668Z,8.99
2022-09-22T04:19:50.668Z,8.91
2022-09-22T04:24:54.463Z,8.86
2022-09-22T04:29:58.111Z,8.84
2022-09-22T04:35:03.188Z,8.82
2022-09-22T04:40:07.895Z,8.77
2022-09-22T04:45:12.001Z,8.74
2022-09-22T04:50:18.591Z,8.71
2022-09-22T04:55:23.875Z,8.67
2022-09-22T05:00:29.743Z,8.64
2022-09-22T05:05:34.815Z,8.59
2022-09-22T05:10:38.495Z,8.58
2022-09-22T05:15:42.435Z,8.55
2022-09-22T05:20:47.580Z,8.48
2022-09-22T05:25:51.220Z,8.45
2022-09-22T05:30:54.895Z,8.44
2022-09-22T05:35:59.988Z,8.46
2022-09-22T05:41:03.979Z,8.40
2022-09-22T05:46:07.776Z,8.40
2022-09-22T05:51:13.363Z,8.40
2022-09-22T05:56:17.039Z,8.42
2022-09-22T06:01:20.927Z,8.42
2022-09-22T06:06:26.106Z,8.46
2022-09-22T06:11:29.792Z,8.49
2022-09-22T06:16:33.544Z,8.59
2022-09-22T06:21:39.055Z,8.68
2022-09-22T06:26:43.002Z,8.78
2022-09-22T06:31:48.945Z,8.90
2022-09-22T06:36:56.218Z,9.04
2022-09-22T06:42:01.214Z,9.18
2022-09-22T06:47:06.311Z,9.34
2022-09-22T06:52:14.024Z,9.49
2022-09-22T06:57:18.504Z,9.66
2022-09-22T07:02:23.140Z,9.81
2022-09-22T07:07:32.111Z,9.96
2022-09-22T07:12:36.042Z,10.10
2022-09-22T07:17:39.727Z,10.26
2022-09-22T07:22:44.783Z,10.48
2022-09-22T07:27:48.564Z,10.63
2022-09-22T07:32:52.303Z,10.81
2022-09-22T07:38:03.281Z,10.99
2022-09-22T07:43:06.920Z,11.18
2022-09-22T07:48:43.107Z,11.40
2022-09-22T07:53:49.413Z,11.60
2022-09-22T07:58:54.653Z,11.84
2022-09-22T08:03:58.400Z,12.04
2022-09-22T08:09:06.907Z,12.23
2022-09-22T08:14:12.837Z,12.34
2022-09-22T08:19:16.546Z,12.54
2022-09-22T08:24:23.361Z,12.74
2022-09-22T08:29:27.935Z,12.96
2022-09-22T08:34:31.588Z,13.15
2022-09-22T08:39:36.814Z,13.37
2022-09-22T08:44:43.358Z,13.56
2022-09-22T08:50:09.197Z,13.79
2022-09-22T08:55:20.867Z,14.02
2022-09-22T09:00:26.083Z,14.30
2022-09-22T09:05:51.522Z,14.55
2022-09-22T09:11:00.221Z,14.88
2022-09-22T09:16:16.803Z,15.13
2022-09-22T09:21:22.932Z,15.24
2022-09-22T09:26:29.797Z,15.56
2022-09-22T09:31:40.744Z,15.94
2022-09-22T09:36:49.124Z,16.13
2022-09-22T09:41:55.346Z,16.38
2022-09-22T09:47:08.298Z,16.63
2022-09-22T09:52:14.036Z,17.29
2022-09-22T09:57:20.436Z,17.66
2022-09-22T10:02:28.556Z,18.26
2022-09-22T10:07:40.525Z,18.78
2022-09-22T10:12:45.529Z,19.23
2022-09-22T10:17:49.396Z,20.62
2022-09-22T10:22:54.222Z,21.38
2022-09-22T10:28:04.463Z,22.25
2022-09-22T10:33:15.420Z,22.65
2022-09-22T10:38:21.573Z,23.31
2022-09-22T10:43:40.986Z,23.57
2022-09-22T10:48:49.762Z,24.08
2022-09-22T10:54:18.251Z,23.42
2022-09-22T10:59:39.666Z,24.04
2022-09-22T11:04:54.737Z,24.08
2022-09-22T11:10:36.430Z,24.71
2022-09-22T11:15:59.640Z,25.34
2022-09-22T11:21:17.200Z,25.99
2022-09-22T11:26:30.055Z,26.24
2022-09-22T11:31:47.215Z,25.24
2022-09-22T11:36:57.279Z,26.00
2022-09-22T11:42:14.922Z,24.99
2022-09-22T11:47:48.380Z,26.31
2022-09-22T11:53:09.452Z,26.90
2022-09-22T11:58:18.727Z,27.25
2022-09-22T12:03:28.193Z,27.24
2022-09-22T12:08:38.250Z,27.18
2022-09-22T12:13:44.474Z,28.23
2022-09-22T12:18:55.319Z,28.43
2022-09-22T12:24:02.728Z,28.52
2022-09-22T12:29:19.223Z,28.07
2022-09-22T12:34:27.297Z,28.69
2022-09-22T12:39:33.355Z,26.82
2022-09-22T12:44:44.209Z,27.65
2022-09-22T12:49:54.922Z,27.97
2022-09-22T12:55:18.018Z,28.18
2022-09-22T13:00:32.194Z,28.27
2022-09-22T13:05:46.825Z,29.61
2022-09-22T13:10:57.199Z,30.24
2022-09-22T13:16:02.405Z,30.12
2022-09-22T13:21:25.728Z,30.26
2022-09-22T13:26:32.424Z,28.80
2022-09-22T13:31:41.274Z,30.09
2022-09-22T13:36:46.830Z,30.71
2022-09-22T13:41:54.320Z,30.33
2022-09-22T13:47:00.743Z,29.30
2022-09-22T13:52:08.966Z,28.11
2022-09-22T13:57:20.978Z,28.64
2022-09-22T14:02:30.646Z,28.71
2022-09-22T14:07:55.188Z,29.61
2022-09-22T14:13:02.473Z,30.66
2022-09-22T14:18:14.381Z,30.28
2022-09-22T14:23:27.983Z,30.60
2022-09-22T14:28:37.121Z,30.94
2022-09-22T14:33:44.950Z,31.29
2022-09-22T14:39:06.395Z,30.23
2022-09-22T14:44:27.332Z,30.07
2022-09-22T14:49:40.770Z,30.00
2022-09-22T14:54:45.855Z,27.94
2022-09-22T15:00:13.488Z,27.56
2022-09-22T15:05:29.575Z,27.73
2022-09-22T15:10:35.308Z,27.11
2022-09-22T15:15:46.435Z,26.78
2022-09-22T15:20:52.370Z,27.14
2022-09-22T15:25:57.703Z,26.97
2022-09-22T15:31:01.445Z,27.47
2022-09-22T15:36:12.775Z,27.65
2022-09-22T15:41:17.770Z,27.59
2022-09-22T15:46:33.721Z,27.54
2022-09-22T15:51:37.891Z,27.23
2022-09-22T15:56:43.738Z,27.06
2022-09-22T16:01:47.559Z,26.97
2022-09-22T16:06:55.353Z,26.91
2022-09-22T16:12:00.451Z,26.23
2022-09-22T16:17:04.275Z,25.16
2022-09-22T16:22:08.086Z,25.05
2022-09-22T16:27:13.160Z,24.45
2022-09-22T16:32:17.217Z,24.11
2022-09-22T16:37:21.112Z,23.85
2022-09-22T16:42:26.178Z,23.45
2022-09-22T16:47:29.855Z,23.10
2022-09-22T16:52:34.176Z,22.82
2022-09-22T16:57:39.308Z,22.70
2022-09-22T17:02:46.044Z,22.50
2022-09-22T17:07:50.077Z,22.29
2022-09-22T17:12:56.403Z,21.97
2022-09-22T17:18:00.096Z,21.61
2022-09-22T17:23:06.759Z,21.32
2022-09-22T17:28:11.910Z,21.01
2022-09-22T17:33:16.939Z,20.69
2022-09-22T17:38:20.679Z,20.35
2022-09-22T17:43:25.744Z,20.18
2022-09-22T17:48:47.202Z,19.95
2022-09-22T17:54:23.264Z,19.68
2022-09-22T17:59:29.274Z,19.48
2022-09-22T18:04:33.203Z,19.22
2022-09-22T18:09:38.726Z,19.07
2022-09-22T18:14:46.001Z,18.91
2022-09-22T18:19:49.864Z,18.72
2022-09-22T18:24:55.719Z,18.65
2022-09-22T18:30:00.920Z,18.47
2022-09-22T18:35:05.771Z,18.25
2022-09-22T18:40:12.594Z,18.12
2022-09-22T18:45:18.081Z,17.98
2022-09-22T18:50:21.780Z,17.85
2022-09-22T18:55:26.002Z,17.77
2022-09-22T19:00:31.581Z,17.63
2022-09-22T19:05:35.283Z,17.51
2022-09-22T19:10:39.004Z,17.37
2022-09-22T19:15:44.135Z,17.18
2022-09-22T19:20:47.897Z,17.11
2022-09-22T19:25:51.929Z,17.03
2022-09-22T19:30:57.147Z,16.93
2022-09-22T19:36:01.080Z,16.81
2022-09-22T19:41:04.947Z,16.67
2022-09-22T19:46:10.300Z,16.61
2022-09-22T19:51:14.047Z,16.44
2022-09-22T19:56:20.622Z,16.34
2022-09-22T20:01:34.657Z,16.30
2022-09-22T20:06:38.404Z,16.20
2022-09-22T20:11:44.396Z,16.00
2022-09-22T20:16:50.274Z,15.86
2022-09-22T20:22:17.856Z,15.89
2022-09-22T20:27:24.093Z,15.80
2022-09-22T20:32:31.568Z,15.64
2022-09-22T20:37:35.313Z,15.54
2022-09-22T20:42:39.069Z,15.42
2022-09-22T20:47:44.404Z,15.33
2022-09-22T20:52:48.138Z,15.21
2022-09-22T20:57:51.832Z,15.08
2022-09-22T21:03:00.392Z,15.04
2022-09-22T21:08:18.144Z,14.95
2022-09-22T21:13:21.823Z,14.85
2022-09-22T21:18:26.800Z,14.68
2022-09-22T21:23:31.260Z,14.68
2022-09-22T21:28:35.097Z,14.57
2022-09-22T21:33:40.134Z,14.47
2022-09-22T21:38:45.044Z,14.37
2022-09-22T21:43:50.043Z,14.32
2022-09-22T21:48:59.262Z,14.23
2022-09-22T21:54:04.497Z,14.20
2022-09-22T21:59:08.429Z,14.08
2022-09-22T22:04:15.364Z,13.99
2022-09-22T22:09:21.139Z,13.92
2022-09-22T22:14:27.209Z,13.87
2022-09-22T22:19:32.252Z,13.83
2022-09-22T22:24:40.483Z,13.75
2022-09-22T22:29:44.173Z,13.69
2022-09-22T22:34:49.945Z,13.63
2022-09-22T22:39:53.637Z,13.58
2022-09-22T22:44:57.378Z,13.51
2022-09-22T22:50:02.405Z,13.48
2022-09-22T22:55:06.986Z,13.44
2022-09-22T23:00:12.183Z,13.42
2022-09-22T23:05:17.579Z,13.38
2022-09-22T23:10:21.356Z,13.36
2022-09-22T23:15:26.331Z,13.30
2022-09-22T23:20:31.319Z,13.22
2022-09-22T23:25:37.454Z,13.14
2022-09-22T23:30:41.461Z,13.11
2022-09-22T23:35:54.475Z,13.04
2022-09-22T23:40:59.625Z,13.03
2022-09-22T23:46:04.623Z,13.09
2022-09-22T23:51:10.298Z,13.04
2022-09-22T23:56:14.881Z,13.08
